Wick, United Kingdom
Current Conditions -  °F | °C
As of 1:50 PM on Monday 20 Oct 2014 (Local Time) from EGPC Reporting Station
Rain Showers Rain Showers  
Wind Chill: 52°   Ceiling: Unl
Heat Index: 52°   Visibility: 6mi
Dew Point: 46°   Wind: 13mph
Humidity: 82%   Direction: 210°SSW
Pressure: 29.56"   Gusts: NA
Location:  58.44°N, 3.09°W
Report Text: EGPC 201250Z 21011KT 9999 VCSH FEW009 11/08 Q1001
Loading
Personal Weather Stations






























Interactive Weather Map
Tropical Storm Tracking
New forecast layout! Learn more

10-Day Weather Forecast

Advertisements
Track Severe Weather on mobile